Aviation Digital Data Service (ADDS)

Output produced by METARs form (1124 UTC 17 June 2019)
found at http://www.aviationweather.gov/metar/data/
 
Forecast for: LATI (TIRANA , AL)
Text: TAF LATI 171100Z 1712/1812 34010KT 9999 FEW030CB SCT100 TX33/1812Z TN20/1804Z
Forecast period: 1200 to 1800 UTC 17 June 2019
Forecast type: FROM: standard forecast or significant change
Winds: from the NNW (340 degrees) at 12 MPH (10 knots; 5.1 m/s)
Visibility: 6 or more miles 10+ km)
Ceiling: at least 12,000 feet AGL
Clouds: few clouds at 3000 feet AGL
scattered clouds at 10000 feet AGL
Weather: no significant weather forecast for this period
Text: BECMG 1718/1720 VRB03KT CAVOK
Forecast period: 1800 UTC 17 June 2019 to 1200 UTC 18 June 2019
Forecast type: BECOMING: Conditions expected to become as follows by 2000 UTC 17 June 2019
Winds: variable direction winds at 3 MPH (3 knots; 1.5 m/s)
Visibility: 6 or more miles 10+ km)
Ceiling: unknown
Clouds: missing
Weather: NSW  (no significant weather)